createdAt,value
2018-02-11T00:01:09.670Z,3.63
2018-02-11T00:02:24.704Z,3.61
2018-02-11T00:03:40.126Z,3.61
2018-02-11T00:04:55.117Z,3.59
2018-02-11T00:06:10.278Z,3.58
2018-02-11T00:07:25.303Z,3.57
2018-02-11T00:08:40.250Z,3.58
2018-02-11T00:09:54.926Z,3.58
2018-02-11T00:11:10.108Z,3.6
2018-02-11T00:12:25.010Z,3.62
2018-02-11T00:13:40.214Z,3.6
2018-02-11T00:14:55.354Z,3.67
2018-02-11T00:16:10.630Z,3.67
2018-02-11T00:17:26.022Z,3.67
2018-02-11T00:18:40.709Z,3.66
2018-02-11T00:19:55.297Z,3.63
2018-02-11T00:21:09.942Z,3.62
2018-02-11T00:22:25.062Z,3.57
2018-02-11T00:23:40.611Z,3.54
2018-02-11T00:24:55.374Z,3.51
2018-02-11T00:26:10.084Z,3.49
2018-02-11T00:27:25.380Z,3.5
2018-02-11T00:28:40.947Z,3.51
2018-02-11T00:29:56.137Z,3.52
2018-02-11T00:31:11.552Z,3.52
2018-02-11T00:32:26.846Z,3.52
2018-02-11T00:33:41.482Z,3.54
2018-02-11T00:34:57.148Z,3.57
2018-02-11T00:36:12.942Z,3.58
2018-02-11T00:37:27.759Z,3.6
2018-02-11T00:38:42.134Z,3.6
2018-02-11T00:39:57.003Z,3.62
2018-02-11T00:41:12.204Z,3.66
2018-02-11T00:42:26.974Z,3.66
2018-02-11T00:43:42.217Z,3.67
2018-02-11T00:44:56.851Z,3.67
2018-02-11T00:46:11.259Z,3.7
2018-02-11T00:47:26.913Z,3.72
2018-02-11T00:48:41.262Z,3.77
2018-02-11T00:49:55.891Z,3.79
2018-02-11T00:51:10.500Z,3.81
2018-02-11T00:52:25.880Z,3.82
2018-02-11T00:53:41.430Z,3.8
2018-02-11T00:54:56.145Z,3.79
2018-02-11T00:56:10.778Z,3.78
2018-02-11T00:57:26.078Z,3.8
2018-02-11T00:58:40.684Z,3.83
2018-02-11T00:59:56.213Z,3.85
2018-02-11T01:01:11.676Z,3.8
2018-02-11T01:02:26.125Z,3.8
2018-02-11T01:03:40.422Z,3.82
2018-02-11T01:04:54.780Z,3.84
2018-02-11T01:06:10.251Z,3.87
2018-02-11T01:07:24.641Z,3.89
2018-02-11T01:08:39.546Z,3.9
2018-02-11T01:09:54.406Z,3.91
2018-02-11T01:11:09.041Z,3.89
2018-02-11T01:12:23.418Z,3.93
2018-02-11T01:13:38.152Z,3.92
2018-02-11T01:14:52.472Z,3.93
2018-02-11T01:16:07.096Z,3.91
2018-02-11T01:17:21.718Z,3.88
2018-02-11T01:19:02.000Z,3.85
2018-02-11T01:20:16.889Z,3.84
2018-02-11T01:21:31.488Z,3.83
2018-02-11T01:22:46.352Z,3.81
2018-02-11T01:24:01.630Z,3.81
2018-02-11T01:25:15.940Z,3.82
2018-02-11T01:26:30.255Z,3.82
2018-02-11T01:27:44.841Z,3.79
2018-02-11T01:28:59.445Z,3.77
2018-02-11T01:30:14.420Z,3.75
2018-02-11T01:31:28.980Z,3.73
2018-02-11T01:32:44.118Z,3.69
2018-02-11T01:33:58.843Z,3.68
2018-02-11T01:35:13.731Z,3.68
2018-02-11T01:36:28.093Z,3.66
2018-02-11T01:37:43.002Z,3.64
2018-02-11T01:38:57.402Z,3.62
2018-02-11T01:40:11.723Z,3.6
2018-02-11T01:41:25.639Z,3.54
2018-02-11T01:42:40.602Z,3.54
2018-02-11T01:43:55.515Z,3.51
2018-02-11T01:45:10.031Z,3.46
2018-02-11T01:46:24.874Z,3.45
2018-02-11T01:47:39.526Z,3.41
2018-02-11T01:48:54.626Z,3.41
2018-02-11T01:50:09.228Z,3.38
2018-02-11T01:51:23.803Z,3.37
2018-02-11T01:52:38.362Z,3.34
2018-02-11T01:53:53.758Z,3.34
2018-02-11T01:55:09.725Z,3.33
2018-02-11T01:56:23.763Z,3.35
2018-02-11T01:57:38.339Z,3.37
2018-02-11T01:58:53.242Z,3.4
2018-02-11T02:00:07.916Z,3.43
2018-02-11T02:01:22.582Z,3.46
2018-02-11T02:02:36.998Z,3.51
2018-02-11T02:03:51.151Z,3.55
2018-02-11T02:05:06.035Z,3.56
2018-02-11T02:06:20.926Z,3.56
2018-02-11T02:07:35.589Z,3.56
2018-02-11T02:08:50.481Z,3.53
2018-02-11T02:10:05.611Z,3.51
2018-02-11T02:11:20.833Z,3.49
2018-02-11T02:12:35.164Z,3.48
2018-02-11T02:13:51.366Z,3.47
2018-02-11T02:15:05.996Z,3.45
2018-02-11T02:16:20.896Z,3.45
2018-02-11T02:17:35.231Z,3.47
2018-02-11T02:18:50.043Z,3.46
2018-02-11T02:20:05.441Z,3.5
2018-02-11T02:21:20.330Z,3.49
2018-02-11T02:22:34.687Z,3.53
2018-02-11T02:23:49.230Z,3.52
2018-02-11T02:25:03.956Z,3.5
2018-02-11T02:26:18.296Z,3.49
2018-02-11T02:27:33.129Z,3.49
2018-02-11T02:28:48.119Z,3.49
2018-02-11T02:30:02.266Z,3.5
2018-02-11T02:31:17.144Z,3.51
2018-02-11T02:32:32.326Z,3.54
2018-02-11T02:33:47.532Z,3.53
2018-02-11T02:35:02.444Z,3.54
2018-02-11T02:36:17.026Z,3.54
2018-02-11T02:37:31.630Z,3.53
2018-02-11T02:38:46.758Z,3.55
2018-02-11T02:40:01.734Z,3.56
2018-02-11T02:41:16.916Z,3.57
2018-02-11T02:43:03.793Z,3.59
2018-02-11T02:44:18.637Z,3.54
2018-02-11T02:45:32.640Z,3.53
2018-02-11T02:46:48.372Z,3.54
2018-02-11T02:48:02.655Z,3.56
2018-02-11T02:49:17.662Z,3.58
2018-02-11T02:50:32.528Z,3.58
2018-02-11T02:51:47.656Z,3.58
2018-02-11T02:53:02.526Z,3.57
2018-02-11T02:54:17.169Z,3.6
2018-02-11T02:55:32.598Z,3.58
2018-02-11T02:56:47.214Z,3.57
2018-02-11T02:58:01.849Z,3.57
2018-02-11T02:59:16.503Z,3.59
2018-02-11T03:00:30.755Z,3.62
2018-02-11T03:01:46.193Z,3.65
2018-02-11T03:03:01.066Z,3.65
2018-02-11T03:04:16.580Z,3.69
2018-02-11T03:05:31.540Z,3.71
2018-02-11T03:06:46.386Z,3.73
2018-02-11T03:08:01.332Z,3.76
2018-02-11T03:09:16.546Z,3.79
2018-02-11T03:10:32.056Z,3.77
2018-02-11T03:11:46.650Z,3.74
2018-02-11T03:13:01.821Z,3.73
2018-02-11T03:14:16.424Z,3.69
2018-02-11T03:15:31.530Z,3.67
2018-02-11T03:16:46.507Z,3.64
2018-02-11T03:18:01.343Z,3.64
2018-02-11T03:19:16.681Z,3.63
2018-02-11T03:20:31.659Z,3.64
2018-02-11T03:21:46.770Z,3.63
2018-02-11T03:23:01.914Z,3.61
2018-02-11T03:24:17.008Z,3.61
2018-02-11T03:25:32.038Z,3.63
2018-02-11T03:26:46.930Z,3.66
2018-02-11T03:28:02.104Z,3.68
2018-02-11T03:29:16.707Z,3.68
2018-02-11T03:30:31.463Z,3.7
2018-02-11T03:31:46.106Z,3.71
2018-02-11T03:33:00.972Z,3.7
2018-02-11T03:34:16.102Z,3.73
2018-02-11T03:35:30.943Z,3.75
2018-02-11T03:36:45.538Z,3.75
2018-02-11T03:37:59.846Z,3.75
2018-02-11T03:39:15.103Z,3.77
2018-02-11T03:40:30.049Z,3.75
2018-02-11T03:41:44.364Z,3.76
2018-02-11T03:42:59.202Z,3.76
2018-02-11T03:44:14.040Z,3.8
2018-02-11T03:45:29.094Z,3.81
2018-02-11T03:46:43.980Z,3.82
2018-02-11T03:47:58.819Z,3.83
2018-02-11T03:49:13.731Z,3.8
2018-02-11T03:50:28.749Z,3.78
2018-02-11T03:51:43.802Z,3.78
2018-02-11T03:52:58.430Z,3.8
2018-02-11T03:54:11.924Z,3.81
2018-02-11T03:55:26.491Z,3.83
2018-02-11T03:56:41.295Z,3.79
2018-02-11T03:57:56.152Z,3.77
2018-02-11T03:59:10.757Z,3.75
2018-02-11T04:00:25.295Z,3.76
2018-02-11T04:01:39.370Z,3.74
2018-02-11T04:02:54.794Z,3.69
2018-02-11T04:04:10.203Z,3.68
2018-02-11T04:05:24.828Z,3.65
2018-02-11T04:06:39.679Z,3.61
2018-02-11T04:07:54.284Z,3.62
2018-02-11T04:09:09.113Z,3.62
2018-02-11T04:10:23.745Z,3.61
2018-02-11T04:11:39.397Z,3.6
2018-02-11T04:12:54.248Z,3.62
2018-02-11T04:14:09.092Z,3.62
2018-02-11T04:15:23.712Z,3.63
2018-02-11T04:16:38.503Z,3.66
2018-02-11T04:17:53.920Z,3.69
2018-02-11T04:19:08.854Z,3.71
2018-02-11T04:20:23.791Z,3.74
2018-02-11T04:21:38.979Z,3.75
2018-02-11T04:22:53.006Z,3.75
2018-02-11T04:24:09.105Z,3.77
2018-02-11T04:25:23.748Z,3.8
2018-02-11T04:26:38.984Z,3.84
2018-02-11T04:27:53.862Z,3.89
2018-02-11T04:29:08.526Z,3.91
2018-02-11T04:30:23.406Z,3.92
2018-02-11T04:31:38.565Z,3.91
2018-02-11T04:32:53.965Z,3.89
2018-02-11T04:34:08.305Z,3.87
2018-02-11T04:35:22.956Z,3.84
2018-02-11T04:36:37.837Z,3.83
2018-02-11T04:37:52.385Z,3.8
2018-02-11T04:39:06.968Z,3.77
2018-02-11T04:40:22.399Z,3.74
2018-02-11T04:41:36.973Z,3.74
2018-02-11T04:42:52.435Z,3.77
2018-02-11T04:44:07.025Z,3.76
2018-02-11T04:45:21.923Z,3.75
2018-02-11T04:46:36.564Z,3.74
2018-02-11T04:47:51.446Z,3.72
2018-02-11T04:49:06.838Z,3.71
2018-02-11T04:50:20.919Z,3.71
2018-02-11T04:51:35.804Z,3.73
2018-02-11T04:52:50.442Z,3.75
2018-02-11T04:54:04.757Z,3.78
2018-02-11T04:55:19.660Z,3.79
2018-02-11T04:56:35.035Z,3.84
2018-02-11T04:57:50.125Z,3.9
2018-02-11T04:59:05.028Z,3.9
2018-02-11T05:00:19.862Z,3.88
2018-02-11T05:01:34.755Z,3.85
2018-02-11T05:02:49.763Z,3.81
2018-02-11T05:04:03.812Z,3.79
2018-02-11T05:05:18.478Z,3.78
2018-02-11T05:06:33.065Z,3.76
2018-02-11T05:07:48.831Z,3.74
2018-02-11T05:09:03.993Z,3.74
2018-02-11T05:10:18.859Z,3.73
2018-02-11T05:11:33.467Z,3.74
2018-02-11T05:12:48.588Z,3.72
2018-02-11T05:14:04.042Z,3.71
2018-02-11T05:15:18.055Z,3.67
2018-02-11T05:16:32.971Z,3.68
2018-02-11T05:20:19.756Z,3.68
2018-02-11T05:21:34.392Z,3.66
2018-02-11T05:22:49.088Z,3.67
2018-02-11T05:24:03.985Z,3.66
2018-02-11T05:25:18.344Z,3.65
2018-02-11T05:26:33.506Z,3.66
2018-02-11T05:27:47.935Z,3.67
2018-02-11T05:29:23.304Z,3.67
2018-02-11T05:30:37.876Z,3.68
2018-02-11T05:31:52.806Z,3.7
2018-02-11T05:33:07.869Z,3.69
2018-02-11T05:34:22.171Z,3.73
2018-02-11T05:35:36.510Z,3.72
2018-02-11T05:36:51.649Z,3.74
2018-02-11T05:38:06.901Z,3.73
2018-02-11T05:39:22.029Z,3.7
2018-02-11T05:40:36.610Z,3.63
2018-02-11T05:41:50.971Z,3.62
2018-02-11T05:43:05.535Z,3.62
2018-02-11T05:44:20.070Z,3.62
2018-02-11T05:45:35.243Z,3.6
2018-02-11T05:46:49.548Z,3.59
2018-02-11T05:48:04.218Z,3.6
2018-02-11T05:49:19.515Z,3.57
2018-02-11T05:50:34.673Z,3.51
2018-02-11T05:51:49.237Z,3.45
2018-02-11T05:53:04.370Z,3.41
2018-02-11T05:54:19.509Z,3.35
2018-02-11T05:55:34.637Z,3.27
2018-02-11T05:56:49.485Z,3.18
2018-02-11T05:58:04.297Z,3.1
2018-02-11T05:59:19.140Z,3.05
2018-02-11T06:00:34.041Z,3.01
2018-02-11T06:01:49.351Z,2.95
2018-02-11T06:03:04.520Z,2.89
2018-02-11T06:04:19.427Z,2.84
2018-02-11T06:05:34.004Z,2.79
2018-02-11T06:06:49.430Z,2.72
2018-02-11T06:08:04.348Z,2.65
2018-02-11T06:09:19.755Z,2.6
2018-02-11T06:10:34.393Z,2.6
2018-02-11T06:11:49.493Z,2.58
2018-02-11T06:13:03.796Z,2.56
2018-02-11T06:14:18.423Z,2.54
2018-02-11T06:15:33.367Z,2.51
2018-02-11T06:16:48.482Z,2.48
2018-02-11T06:18:03.581Z,2.42
2018-02-11T06:19:17.692Z,2.41
2018-02-11T06:20:32.242Z,2.41
2018-02-11T06:21:47.465Z,2.39
2018-02-11T06:23:02.275Z,2.39
2018-02-11T06:24:16.946Z,2.37
2018-02-11T06:25:32.054Z,2.38
2018-02-11T06:26:47.438Z,2.39
2018-02-11T06:28:02.874Z,2.38
2018-02-11T06:29:18.108Z,2.42
2018-02-11T06:30:33.581Z,2.45
2018-02-11T06:31:48.248Z,2.44
2018-02-11T06:33:03.192Z,2.42
2018-02-11T06:34:18.235Z,2.43
2018-02-11T06:35:32.531Z,2.44
2018-02-11T06:36:47.670Z,2.43
2018-02-11T06:38:02.546Z,2.41
2018-02-11T06:39:17.670Z,2.42
2018-02-11T06:40:32.851Z,2.44
2018-02-11T06:41:48.255Z,2.47
2018-02-11T06:43:03.041Z,2.47
2018-02-11T06:44:17.684Z,2.49
2018-02-11T06:45:32.355Z,2.49
2018-02-11T06:46:47.487Z,2.51
2018-02-11T06:48:02.372Z,2.52
2018-02-11T06:49:16.690Z,2.53
2018-02-11T06:50:31.018Z,2.51
2018-02-11T06:51:46.758Z,2.51
2018-02-11T06:53:02.399Z,2.5
2018-02-11T06:54:17.785Z,2.47
2018-02-11T06:55:32.713Z,2.46
2018-02-11T06:56:47.874Z,2.45
2018-02-11T06:58:02.824Z,2.41
2018-02-11T06:59:18.047Z,2.42
2018-02-11T07:00:32.669Z,2.42
2018-02-11T07:01:47.568Z,2.43
2018-02-11T07:03:02.805Z,2.44
2018-02-11T07:04:17.422Z,2.41
2018-02-11T07:05:32.286Z,2.39
2018-02-11T07:06:47.084Z,2.4
2018-02-11T07:08:01.343Z,2.41
2018-02-11T07:09:16.625Z,2.43
2018-02-11T07:10:31.776Z,2.45
2018-02-11T07:11:47.202Z,2.44
2018-02-11T07:13:02.064Z,2.46
2018-02-11T07:14:16.692Z,2.48
2018-02-11T07:15:31.292Z,2.48
2018-02-11T07:16:45.636Z,2.47
2018-02-11T07:18:01.100Z,2.44
2018-02-11T07:19:15.719Z,2.45
2018-02-11T07:20:30.738Z,2.47
2018-02-11T07:21:45.072Z,2.48
2018-02-11T07:22:59.709Z,2.47
2018-02-11T07:24:14.693Z,2.48
2018-02-11T07:25:29.715Z,2.48
2018-02-11T07:26:43.794Z,2.47
2018-02-11T07:27:59.195Z,2.46
2018-02-11T07:29:13.822Z,2.41
2018-02-11T07:30:28.655Z,2.39
2018-02-11T07:31:43.853Z,2.35
2018-02-11T07:32:59.042Z,2.36
2018-02-11T07:34:13.937Z,2.35
2018-02-11T07:35:29.012Z,2.32
2018-02-11T07:36:43.631Z,2.3
2018-02-11T07:37:58.864Z,2.27
2018-02-11T07:39:13.552Z,2.27
2018-02-11T07:40:28.456Z,2.28
2018-02-11T07:41:43.589Z,2.31
2018-02-11T07:42:58.616Z,2.33
2018-02-11T07:44:13.300Z,2.33
2018-02-11T07:45:28.247Z,2.32
2018-02-11T07:46:42.913Z,2.31
2018-02-11T07:47:58.146Z,2.31
2018-02-11T07:49:13.909Z,2.3
2018-02-11T07:50:29.478Z,2.31
2018-02-11T07:51:44.388Z,2.34
2018-02-11T07:52:59.013Z,2.36
2018-02-11T07:54:13.124Z,2.38
2018-02-11T07:55:28.553Z,2.44
2018-02-11T07:56:43.225Z,2.45
2018-02-11T07:57:57.890Z,2.46
2018-02-11T07:59:11.983Z,2.47
2018-02-11T08:00:27.019Z,2.46
2018-02-11T08:01:41.682Z,2.48
2018-02-11T08:02:55.989Z,2.5
2018-02-11T08:04:10.338Z,2.5
2018-02-11T08:05:25.411Z,2.53
2018-02-11T08:06:40.268Z,2.56
2018-02-11T08:07:55.456Z,2.6
2018-02-11T08:09:10.183Z,2.62
2018-02-11T08:10:24.686Z,2.62
2018-02-11T08:11:40.396Z,2.62
2018-02-11T08:12:55.031Z,2.65
2018-02-11T08:14:09.446Z,2.67
2018-02-11T08:15:24.641Z,2.65
2018-02-11T08:16:39.338Z,2.64
2018-02-11T08:17:54.582Z,2.67
2018-02-11T08:19:08.947Z,2.67
2018-02-11T08:20:24.199Z,2.67
2018-02-11T08:21:42.166Z,2.65
2018-02-11T08:25:15.217Z,2.63
2018-02-11T08:26:30.171Z,2.63
2018-02-11T08:27:45.348Z,2.62
2018-02-11T08:29:00.886Z,2.64
2018-02-11T08:30:16.121Z,2.63
2018-02-11T08:31:31.563Z,2.63
2018-02-11T08:32:45.642Z,2.63
2018-02-11T08:34:00.883Z,2.69
2018-02-11T08:35:15.844Z,2.73
2018-02-11T08:36:30.265Z,2.75
2018-02-11T08:37:44.577Z,2.79
2018-02-11T08:38:59.793Z,2.84
2018-02-11T08:40:14.463Z,2.84
2018-02-11T08:41:28.793Z,2.85
2018-02-11T08:42:43.742Z,2.85
2018-02-11T08:43:58.927Z,2.87
2018-02-11T08:45:14.444Z,2.89
2018-02-11T08:46:29.820Z,2.89
2018-02-11T08:47:44.797Z,2.9
2018-02-11T08:48:59.441Z,2.93
2018-02-11T08:50:14.335Z,2.97
2018-02-11T08:51:29.236Z,3.01
2018-02-11T08:52:44.224Z,3.02
2018-02-11T08:53:59.150Z,3.04
2018-02-11T08:55:13.216Z,3.02
2018-02-11T08:56:28.651Z,3.03
2018-02-11T08:57:43.640Z,3.01
2018-02-11T08:58:58.278Z,2.99
2018-02-11T09:00:12.949Z,3
2018-02-11T09:01:27.832Z,3
2018-02-11T09:02:43.033Z,3
2018-02-11T09:03:58.437Z,3.03
2018-02-11T09:05:13.632Z,3.04
2018-02-11T09:06:28.615Z,3.04
2018-02-11T09:07:43.303Z,3.04
2018-02-11T09:08:58.157Z,3.11
2018-02-11T09:10:13.883Z,3.15
2018-02-11T09:11:28.536Z,3.19
2018-02-11T09:12:44.201Z,3.2
2018-02-11T09:13:59.258Z,3.2
2018-02-11T09:15:14.686Z,3.2
2018-02-11T09:16:29.904Z,3.17
2018-02-11T09:17:44.895Z,3.18
2018-02-11T09:19:00.502Z,3.2
2018-02-11T09:20:14.923Z,3.2
2018-02-11T09:21:29.624Z,3.21
2018-02-11T09:22:45.132Z,3.21
2018-02-11T09:23:59.755Z,3.24
2018-02-11T09:25:14.447Z,3.25
2018-02-11T09:26:29.496Z,3.27
2018-02-11T09:27:44.282Z,3.28
2018-02-11T09:28:59.824Z,3.3
2018-02-11T09:30:14.522Z,3.31
2018-02-11T09:31:28.993Z,3.31
2018-02-11T09:32:44.571Z,3.32
2018-02-11T09:33:59.545Z,3.33
2018-02-11T09:35:13.495Z,3.32
2018-02-11T09:36:27.876Z,3.3
2018-02-11T09:37:43.224Z,3.3
2018-02-11T09:38:57.959Z,3.31
2018-02-11T09:40:13.502Z,3.32
2018-02-11T09:41:29.048Z,3.34
2018-02-11T09:42:43.812Z,3.33
2018-02-11T09:43:58.597Z,3.39
2018-02-11T09:45:13.367Z,3.46
2018-02-11T09:46:28.066Z,3.6
2018-02-11T09:47:42.523Z,3.67
2018-02-11T09:48:57.839Z,3.78
2018-02-11T09:50:12.768Z,3.8
2018-02-11T09:51:26.818Z,3.8
2018-02-11T09:52:41.692Z,3.74
2018-02-11T09:53:56.657Z,3.71
2018-02-11T09:55:11.638Z,3.7
2018-02-11T09:56:26.332Z,3.69
2018-02-11T09:57:40.983Z,3.68
2018-02-11T09:58:55.486Z,3.66
2018-02-11T10:00:10.500Z,3.68
2018-02-11T10:01:25.584Z,3.73
2018-02-11T10:02:40.290Z,3.77
2018-02-11T10:03:55.379Z,3.76
2018-02-11T10:05:09.832Z,3.75
2018-02-11T10:06:25.120Z,3.74
2018-02-11T10:07:40.425Z,3.76
2018-02-11T10:08:55.455Z,3.77
2018-02-11T10:10:11.328Z,3.8
2018-02-11T10:11:26.086Z,3.83
2018-02-11T10:12:41.487Z,3.91
2018-02-11T10:13:55.982Z,3.99
2018-02-11T10:15:10.707Z,4.09
2018-02-11T10:16:25.203Z,4.18
2018-02-11T10:17:40.048Z,4.22
2018-02-11T10:18:54.604Z,4.25
2018-02-11T10:20:09.163Z,4.24
2018-02-11T10:21:24.346Z,4.25
2018-02-11T10:22:38.992Z,4.24
2018-02-11T10:23:53.860Z,4.28
2018-02-11T10:25:09.214Z,4.28
2018-02-11T10:26:24.271Z,4.26
2018-02-11T10:27:38.698Z,4.25
2018-02-11T10:28:53.371Z,4.22
2018-02-11T10:30:08.374Z,4.22
2018-02-11T10:31:24.367Z,4.22
2018-02-11T10:32:40.031Z,4.22
2018-02-11T10:33:55.484Z,4.16
2018-02-11T10:35:10.306Z,4.1
2018-02-11T10:36:25.101Z,4.07
2018-02-11T10:37:40.732Z,4.04
2018-02-11T10:38:56.221Z,4.09
2018-02-11T10:40:11.571Z,4.14
2018-02-11T10:41:25.712Z,4.17
2018-02-11T10:42:40.612Z,4.23
2018-02-11T10:43:55.802Z,4.3
2018-02-11T10:45:10.877Z,4.34
2018-02-11T10:46:25.687Z,4.38
2018-02-11T10:47:40.437Z,4.43
2018-02-11T10:48:55.337Z,4.48
2018-02-11T10:50:10.749Z,4.54
2018-02-11T10:51:25.187Z,4.57
2018-02-11T10:52:40.211Z,4.62
2018-02-11T10:53:55.073Z,4.67
2018-02-11T10:55:09.832Z,4.72
2018-02-11T10:56:25.376Z,4.8
2018-02-11T10:57:40.670Z,4.89
2018-02-11T10:58:55.665Z,4.94
2018-02-11T11:00:10.365Z,4.94
2018-02-11T11:01:25.880Z,4.96
2018-02-11T11:02:41.226Z,4.95
2018-02-11T11:03:55.914Z,4.95
2018-02-11T11:05:10.650Z,4.97
2018-02-11T11:06:25.320Z,4.93
2018-02-11T11:07:40.410Z,4.89
2018-02-11T11:08:56.245Z,4.87
2018-02-11T11:10:10.692Z,4.85
2018-02-11T11:11:25.911Z,4.85
2018-02-11T11:12:40.904Z,4.84
2018-02-11T11:13:55.842Z,4.84
2018-02-11T11:15:10.676Z,4.87
2018-02-11T11:16:24.801Z,4.9
2018-02-11T11:17:39.249Z,4.93
2018-02-11T11:18:54.195Z,4.94
2018-02-11T11:20:09.008Z,4.97
2018-02-11T11:21:24.001Z,4.99
2018-02-11T11:22:38.874Z,5.05
2018-02-11T11:23:54.198Z,5.11
2018-02-11T11:25:08.867Z,5.13
2018-02-11T11:26:23.795Z,5.13
2018-02-11T11:27:38.517Z,5.11
2018-02-11T11:28:53.860Z,5.03
2018-02-11T11:30:08.690Z,5.01
2018-02-11T11:31:23.533Z,5.03
2018-02-11T11:32:38.659Z,5.02
2018-02-11T11:33:54.090Z,5.05
2018-02-11T11:35:08.855Z,5.1
2018-02-11T11:36:23.662Z,5.13
2018-02-11T11:37:38.422Z,5.17
2018-02-11T11:38:53.109Z,5.22
2018-02-11T11:40:08.082Z,5.25
2018-02-11T11:41:23.043Z,5.29
2018-02-11T11:42:37.764Z,5.31
2018-02-11T11:43:52.895Z,5.35
2018-02-11T11:45:08.345Z,5.36
2018-02-11T11:46:23.156Z,5.36
2018-02-11T11:47:37.756Z,5.39
2018-02-11T11:48:52.805Z,5.4
2018-02-11T11:50:07.820Z,5.39
2018-02-11T11:51:22.463Z,5.39
2018-02-11T11:52:37.515Z,5.37
2018-02-11T11:53:53.210Z,5.38
2018-02-11T11:55:07.319Z,5.37
2018-02-11T11:56:21.779Z,5.36
2018-02-11T11:57:35.740Z,5.37
2018-02-11T11:58:51.226Z,5.39
2018-02-11T12:00:06.084Z,5.38
2018-02-11T12:01:21.366Z,5.35
2018-02-11T12:02:36.666Z,5.34
2018-02-11T12:03:51.304Z,5.32
2018-02-11T12:05:06.239Z,5.31
2018-02-11T12:06:21.321Z,5.33
2018-02-11T12:07:36.072Z,5.34
2018-02-11T12:08:50.497Z,5.4
2018-02-11T12:10:05.546Z,5.46
2018-02-11T12:11:19.955Z,5.51
2018-02-11T12:12:34.106Z,5.53
2018-02-11T12:13:49.190Z,5.55
2018-02-11T12:15:04.484Z,5.58
2018-02-11T12:16:19.170Z,5.61
2018-02-11T12:17:34.598Z,5.64
2018-02-11T12:19:02.343Z,5.63
2018-02-11T12:20:17.230Z,5.69
2018-02-11T12:21:31.903Z,5.73
2018-02-11T12:22:46.634Z,5.78
2018-02-11T12:24:02.107Z,5.85
2018-02-11T12:25:16.941Z,5.9
2018-02-11T12:26:31.127Z,5.94
2018-02-11T12:27:46.950Z,5.97
2018-02-11T12:29:01.213Z,5.96
2018-02-11T12:30:16.451Z,5.98
2018-02-11T12:31:31.662Z,6.01
2018-02-11T12:32:46.642Z,6.07
2018-02-11T12:34:01.687Z,6.12
2018-02-11T12:35:16.109Z,6.14
2018-02-11T12:36:31.208Z,6.2
2018-02-11T12:37:45.643Z,6.26
2018-02-11T12:39:00.747Z,6.25
2018-02-11T12:40:15.499Z,6.27
2018-02-11T12:41:30.929Z,6.33
2018-02-11T12:42:45.328Z,6.43
2018-02-11T12:43:59.567Z,6.52
2018-02-11T12:45:14.812Z,6.58
2018-02-11T12:46:30.353Z,6.64
2018-02-11T12:47:45.345Z,6.76
2018-02-11T12:49:00.469Z,6.84
2018-02-11T12:50:15.214Z,6.94
2018-02-11T12:51:30.235Z,7.06
2018-02-11T12:52:44.118Z,7.13
2018-02-11T12:53:58.974Z,7.21
2018-02-11T12:55:13.720Z,7.25
2018-02-11T12:56:28.945Z,7.3
2018-02-11T12:57:43.707Z,7.27
2018-02-11T12:58:58.464Z,7.23
2018-02-11T13:00:13.592Z,7.15
2018-02-11T13:01:29.288Z,7.13
2018-02-11T13:02:43.833Z,7.09
2018-02-11T13:03:59.032Z,7.05
2018-02-11T13:05:13.168Z,7.06
2018-02-11T13:06:28.374Z,7.04
2018-02-11T13:07:43.696Z,7.08
2018-02-11T13:08:58.443Z,7.05
2018-02-11T13:10:12.914Z,7.07
2018-02-11T13:11:28.186Z,7.11
2018-02-11T13:12:43.627Z,7.15
2018-02-11T13:13:58.425Z,7.16
2018-02-11T13:15:12.838Z,7.17
2018-02-11T13:16:27.962Z,7.18
2018-02-11T13:17:42.903Z,7.17
2018-02-11T13:18:57.593Z,7.24
2018-02-11T13:20:12.318Z,7.28
2018-02-11T13:21:27.574Z,7.28
2018-02-11T13:22:41.716Z,7.27
2018-02-11T13:23:56.098Z,7.25
2018-02-11T13:25:11.163Z,7.24
2018-02-11T13:26:26.012Z,7.23
2018-02-11T13:27:40.628Z,7.27
2018-02-11T13:28:55.663Z,7.26
2018-02-11T13:32:48.372Z,7.23
2018-02-11T13:34:03.372Z,7.19
2018-02-11T13:35:17.601Z,7.18
2018-02-11T13:36:32.173Z,7.19
2018-02-11T13:37:46.925Z,7.25
2018-02-11T13:39:01.952Z,7.29
2018-02-11T13:40:16.967Z,7.3
2018-02-11T13:41:31.328Z,7.33
2018-02-11T13:42:46.346Z,7.32
2018-02-11T13:44:01.109Z,7.31
2018-02-11T13:45:16.763Z,7.31
2018-02-11T13:46:31.233Z,7.32
2018-02-11T13:47:45.191Z,7.34
2018-02-11T13:48:59.218Z,7.35
2018-02-11T13:50:14.250Z,7.37
2018-02-11T13:51:29.795Z,7.39
2018-02-11T13:52:44.972Z,7.39
2018-02-11T13:53:59.999Z,7.42
2018-02-11T13:55:15.103Z,7.43
2018-02-11T13:56:29.911Z,7.44
2018-02-11T13:57:44.453Z,7.45
2018-02-11T13:58:59.416Z,7.44
2018-02-11T14:00:14.192Z,7.44
2018-02-11T14:01:29.544Z,7.42
2018-02-11T14:02:44.784Z,7.39
2018-02-11T14:04:00.759Z,7.36
2018-02-11T14:05:15.169Z,7.32
2018-02-11T14:06:29.622Z,7.28
2018-02-11T14:07:45.294Z,7.25
2018-02-11T14:09:01.005Z,7.21
2018-02-11T14:10:16.137Z,7.15
2018-02-11T14:11:30.865Z,7.09
2018-02-11T14:12:45.974Z,7.09
2018-02-11T14:14:00.288Z,7.01
2018-02-11T14:15:14.234Z,6.92
2018-02-11T14:16:28.986Z,6.84
2018-02-11T14:17:43.488Z,6.81
2018-02-11T14:18:58.045Z,6.77
2018-02-11T14:20:13.075Z,6.74
2018-02-11T14:21:28.631Z,6.71
2018-02-11T14:22:44.257Z,6.7
2018-02-11T14:23:59.465Z,6.69
2018-02-11T14:25:14.113Z,6.65
2018-02-11T14:26:29.254Z,6.59
2018-02-11T14:27:43.998Z,6.59
2018-02-11T14:28:58.382Z,6.56
2018-02-11T14:30:13.805Z,6.56
2018-02-11T14:31:28.634Z,6.55
2018-02-11T14:32:43.360Z,6.52
2018-02-11T14:33:58.280Z,6.52
2018-02-11T14:35:12.976Z,6.5
2018-02-11T14:36:27.733Z,6.47
2018-02-11T14:37:42.110Z,6.5
2018-02-11T14:38:57.346Z,6.5
2018-02-11T14:40:12.090Z,6.54
2018-02-11T14:41:27.633Z,6.57
2018-02-11T14:42:42.841Z,6.54
2018-02-11T14:43:57.395Z,6.5
2018-02-11T14:45:12.722Z,6.45
2018-02-11T14:46:27.877Z,6.37
2018-02-11T14:47:43.135Z,6.32
2018-02-11T14:48:57.737Z,6.31
2018-02-11T14:50:13.033Z,6.31
2018-02-11T14:51:27.961Z,6.33
2018-02-11T14:52:43.286Z,6.35
2018-02-11T14:53:58.205Z,6.34
2018-02-11T14:55:12.867Z,6.36
2018-02-11T14:56:28.164Z,6.34
2018-02-11T14:57:42.879Z,6.31
2018-02-11T14:58:57.973Z,6.29
2018-02-11T15:00:12.689Z,6.25
2018-02-11T15:01:27.443Z,6.23
2018-02-11T15:02:42.164Z,6.18
2018-02-11T15:03:57.228Z,6.11
2018-02-11T15:05:11.960Z,6.06
2018-02-11T15:06:26.653Z,6.03
2018-02-11T15:07:42.033Z,5.99
2018-02-11T15:08:57.179Z,5.97
2018-02-11T15:10:12.424Z,5.98
2018-02-11T15:11:27.151Z,5.98
2018-02-11T15:12:42.722Z,5.98
2018-02-11T15:13:58.041Z,6
2018-02-11T15:15:12.989Z,6.04
2018-02-11T15:16:27.327Z,6.04
2018-02-11T15:17:42.381Z,6.06
2018-02-11T15:18:57.003Z,6.06
2018-02-11T15:20:12.001Z,6.08
2018-02-11T15:21:26.703Z,6.09
2018-02-11T15:22:41.723Z,6.08
2018-02-11T15:23:56.572Z,6.09
2018-02-11T15:25:12.443Z,6.13
2018-02-11T15:26:27.471Z,6.17
2018-02-11T15:27:42.475Z,6.16
2018-02-11T15:28:57.294Z,6.17
2018-02-11T15:30:11.840Z,6.16
2018-02-11T15:31:27.376Z,6.16
2018-02-11T15:32:42.650Z,6.17
2018-02-11T15:33:57.575Z,6.19
2018-02-11T15:35:11.733Z,6.23
2018-02-11T15:36:27.080Z,6.23
2018-02-11T15:37:42.530Z,6.25
2018-02-11T15:38:57.758Z,6.26
2018-02-11T15:40:12.562Z,6.27
2018-02-11T15:41:27.746Z,6.29
2018-02-11T15:42:41.882Z,6.29
2018-02-11T15:43:57.381Z,6.27
2018-02-11T15:45:12.202Z,6.25
2018-02-11T15:46:27.964Z,6.27
2018-02-11T15:47:42.139Z,6.26
2018-02-11T15:48:57.789Z,6.25
2018-02-11T15:50:12.577Z,6.25
2018-02-11T15:51:27.154Z,6.25
2018-02-11T15:52:42.785Z,6.25
2018-02-11T15:53:58.007Z,6.21
2018-02-11T15:55:12.415Z,6.21
2018-02-11T15:56:27.854Z,6.2
2018-02-11T15:58:17.054Z,6.18
2018-02-11T15:59:31.700Z,6.13
2018-02-11T16:00:46.687Z,6.11
2018-02-11T16:08:39.008Z,5.94
2018-02-11T16:09:53.536Z,5.93
2018-02-11T16:11:08.945Z,5.94
2018-02-11T16:12:23.808Z,5.96
2018-02-11T16:13:38.571Z,5.99
2018-02-11T16:14:54.539Z,6.03
2018-02-11T16:16:09.644Z,6.09
2018-02-11T16:17:24.619Z,6.15
2018-02-11T16:18:39.965Z,6.22
2018-02-11T16:19:54.340Z,6.26
2018-02-11T16:21:09.340Z,6.34
2018-02-11T16:22:24.337Z,6.38
2018-02-11T16:23:38.380Z,6.42
2018-02-11T16:24:53.138Z,6.47
2018-02-11T16:26:07.836Z,6.49
2018-02-11T16:27:22.533Z,6.52
2018-02-11T16:28:37.961Z,6.56
2018-02-11T16:29:52.970Z,6.59
2018-02-11T16:31:08.596Z,6.61
2018-02-11T16:32:22.736Z,6.63
2018-02-11T16:33:37.808Z,6.64
2018-02-11T16:34:52.853Z,6.64
2018-02-11T16:36:08.296Z,6.64
2018-02-11T16:37:23.032Z,6.62
2018-02-11T16:38:38.349Z,6.58
2018-02-11T16:39:53.355Z,6.56
2018-02-11T16:41:08.343Z,6.55
2018-02-11T16:42:22.585Z,6.54
2018-02-11T16:43:37.322Z,6.52
2018-02-11T16:44:52.154Z,6.5
2018-02-11T16:46:06.874Z,6.5
2018-02-11T16:47:22.216Z,6.49
2018-02-11T16:48:37.468Z,6.47
2018-02-11T16:49:52.878Z,6.47
2018-02-11T16:51:06.977Z,6.46
2018-02-11T16:52:21.828Z,6.41
2018-02-11T16:53:37.051Z,6.42
2018-02-11T16:54:52.336Z,6.39
2018-02-11T16:56:08.830Z,6.35
2018-02-11T16:57:23.834Z,6.34